Time;durP1;ratioP1;P1;durP2;ratioP2;P2;SDS_P1;SDS_P2;PMS_P1;PMS_P2;Temp;Humidity;BMP_temperature;BMP_pressure;BME280_temperature;BME280_humidity;BME280_pressure;Samples;Min_cycle;Max_cycle;Signal;HPM_P1;HPM_P2
2023/06/25 00:01:49;;;;;;;0.70;0.70;;;19.70;99.90;;;;;;5001886;28;20049;-78
2023/06/25 00:04:16;;;;;;;1.00;0.70;;;19.70;99.90;;;;;;4961002;28;20431;-76
2023/06/25 00:06:43;;;;;;;0.60;0.50;;;19.60;99.90;;;;;;4950688;28;20050;-76
2023/06/25 00:09:10;;;;;;;0.90;0.60;;;19.60;99.90;;;;;;4983186;28;20068;-76
2023/06/25 00:11:37;;;;;;;0.93;0.55;;;19.50;99.90;;;;;;4983119;28;20429;-77
2023/06/25 00:14:04;;;;;;;0.82;0.65;;;19.40;99.90;;;;;;4965791;28;20199;-77
2023/06/25 00:16:33;;;;;;;0.75;0.50;;;19.30;99.90;;;;;;4966211;28;20070;-76
2023/06/25 00:19:00;;;;;;;0.82;0.52;;;19.30;99.90;;;;;;4966871;28;20054;-76
2023/06/25 00:21:27;;;;;;;0.70;0.50;;;19.20;99.90;;;;;;4951164;28;20057;-77
2023/06/25 00:23:54;;;;;;;1.05;0.82;;;19.20;99.90;;;;;;4950188;28;20061;-76
2023/06/25 00:26:21;;;;;;;0.55;0.45;;;19.10;99.90;;;;;;4982728;28;20094;-76
2023/06/25 00:28:48;;;;;;;0.60;0.55;;;19.10;99.90;;;;;;4983166;28;20061;-76
2023/06/25 00:31:14;;;;;;;0.63;0.60;;;19.10;99.90;;;;;;4984290;28;20546;-76
2023/06/25 00:33:42;;;;;;;0.80;0.50;;;19.10;99.90;;;;;;4982671;28;20523;-77
2023/06/25 00:36:09;;;;;;;1.52;0.73;;;19.00;99.90;;;;;;4950799;28;20105;-77
2023/06/25 00:38:39;;;;;;;0.80;0.57;;;19.00;99.90;;;;;;4950378;28;20166;-77
2023/06/25 00:41:08;;;;;;;1.13;0.60;;;19.00;99.90;;;;;;4966395;28;20047;-77
2023/06/25 00:43:36;;;;;;;1.00;0.60;;;19.00;99.90;;;;;;4965180;28;20160;-77
2023/06/25 00:46:03;;;;;;;0.32;0.30;;;19.00;99.90;;;;;;4966712;28;20050;-77
2023/06/25 00:48:30;;;;;;;0.63;0.50;;;19.00;99.90;;;;;;4949857;28;20473;-77
2023/06/25 00:51:01;;;;;;;0.85;0.57;;;18.90;99.90;;;;;;4934126;28;20120;-77
2023/06/25 00:53:29;;;;;;;0.68;0.50;;;18.90;99.90;;;;;;4934792;28;20057;-77
2023/06/25 00:55:56;;;;;;;0.77;0.50;;;18.90;99.90;;;;;;4949317;28;20057;-77
2023/06/25 00:58:23;;;;;;;1.05;0.70;;;18.80;99.90;;;;;;4965394;28;20046;-76
2023/06/25 01:00:50;;;;;;;0.90;0.60;;;18.80;99.90;;;;;;4982750;28;20181;-75
2023/06/25 01:03:26;;;;;;;0.50;0.40;;;18.80;99.90;;;;;;4959342;28;20449;-76
2023/06/25 01:06:05;;;;;;;0.63;0.60;;;18.80;99.90;;;;;;4969360;28;20054;-77
2023/06/25 01:08:39;;;;;;;0.55;0.45;;;18.70;99.90;;;;;;4986038;28;20053;-76
2023/06/25 01:11:10;;;;;;;1.00;0.60;;;18.70;99.90;;;;;;4984395;28;20112;-77
2023/06/25 01:13:37;;;;;;;0.85;0.60;;;18.70;99.90;;;;;;4953474;28;20053;-76
2023/06/25 01:16:04;;;;;;;0.98;0.88;;;18.60;99.90;;;;;;4953173;28;20129;-76
2023/06/25 01:18:32;;;;;;;0.57;0.52;;;18.50;99.90;;;;;;4968097;28;20064;-76
2023/06/25 01:20:59;;;;;;;1.40;0.70;;;18.50;99.90;;;;;;4968340;28;20125;-76
2023/06/25 01:23:29;;;;;;;0.70;0.50;;;18.50;99.90;;;;;;4967698;28;20108;-77
2023/06/25 01:25:56;;;;;;;1.38;0.65;;;18.50;99.90;;;;;;4968753;28;20481;-77
2023/06/25 01:28:23;;;;;;;0.65;0.50;;;18.50;99.90;;;;;;4984478;28;20105;-77
2023/06/25 01:30:51;;;;;;;0.77;0.52;;;18.50;99.90;;;;;;4984311;28;20112;-76
2023/06/25 01:33:19;;;;;;;0.68;0.55;;;18.40;99.90;;;;;;4995442;28;20089;-76
2023/06/25 01:35:46;;;;;;;0.65;0.40;;;18.40;99.90;;;;;;4984398;28;20135;-76
2023/06/25 01:38:13;;;;;;;0.60;0.60;;;18.40;99.90;;;;;;4986143;28;20402;-77
2023/06/25 01:40:40;;;;;;;1.25;0.90;;;18.30;99.90;;;;;;4985124;28;20126;-77
2023/06/25 01:43:07;;;;;;;0.73;0.52;;;18.20;99.90;;;;;;4986660;28;20077;-77
2023/06/25 01:45:33;;;;;;;0.52;0.47;;;18.20;99.90;;;;;;4987651;28;20124;-78
2023/06/25 01:48:01;;;;;;;0.80;0.60;;;18.10;99.90;;;;;;4970950;28;20057;-77
2023/06/25 01:50:28;;;;;;;0.82;0.73;;;18.10;99.90;;;;;;4971369;28;20581;-76
2023/06/25 01:52:54;;;;;;;0.60;0.50;;;18.00;99.90;;;;;;4987375;28;20057;-79
2023/06/25 01:55:21;;;;;;;0.70;0.60;;;18.00;99.90;;;;;;4986480;28;20568;-77
2023/06/25 01:57:48;;;;;;;1.25;0.82;;;18.00;99.90;;;;;;4986767;28;20057;-77
2023/06/25 02:00:15;;;;;;;0.40;0.40;;;18.00;99.90;;;;;;5004736;28;20084;-77
2023/06/25 02:02:43;;;;;;;0.68;0.57;;;17.90;99.90;;;;;;5004352;28;20144;-76
2023/06/25 02:05:10;;;;;;;0.70;0.50;;;17.90;99.90;;;;;;4987436;28;20050;-76
2023/06/25 02:07:37;;;;;;;0.47;0.47;;;17.90;99.90;;;;;;4971816;28;20057;-78
2023/06/25 02:10:04;;;;;;;1.42;0.65;;;17.80;99.90;;;;;;4970520;28;20092;-77
2023/06/25 02:12:31;;;;;;;0.73;0.40;;;17.80;99.90;;;;;;4971518;28;20076;-77
2023/06/25 02:14:58;;;;;;;0.60;0.50;;;17.80;99.90;;;;;;4971341;28;20320;-77
2023/06/25 02:17:25;;;;;;;0.50;0.50;;;17.80;99.90;;;;;;4954908;28;20057;-77
2023/06/25 02:19:51;;;;;;;0.45;0.40;;;17.80;99.90;;;;;;5003824;28;20060;-76
2023/06/25 02:22:18;;;;;;;0.50;0.50;;;17.80;99.90;;;;;;4986994;28;20108;-76
2023/06/25 02:24:45;;;;;;;0.77;0.60;;;17.80;99.90;;;;;;5003731;28;20049;-76
2023/06/25 02:27:12;;;;;;;1.95;0.73;;;17.80;99.90;;;;;;4986665;28;20650;-77
2023/06/25 02:29:38;;;;;;;0.80;0.52;;;17.80;99.90;;;;;;5004430;28;20058;-76
2023/06/25 02:32:05;;;;;;;0.55;0.55;;;17.70;99.90;;;;;;5003420;28;20071;-77
2023/06/25 02:34:32;;;;;;;0.60;0.40;;;17.70;99.90;;;;;;4986699;28;20123;-77
2023/06/25 02:36:59;;;;;;;0.45;0.40;;;17.60;99.90;;;;;;4986792;28;20108;-77
2023/06/25 02:39:26;;;;;;;0.88;0.65;;;17.60;99.90;;;;;;5003334;28;20505;-77
2023/06/25 02:41:52;;;;;;;1.67;0.73;;;17.60;99.90;;;;;;5003786;28;20141;-77
2023/06/25 02:44:19;;;;;;;0.60;0.50;;;17.60;99.90;;;;;;4986833;28;20591;-76
2023/06/25 02:46:46;;;;;;;1.02;0.57;;;17.60;99.90;;;;;;5004385;28;20572;-76
2023/06/25 02:49:12;;;;;;;1.10;0.68;;;17.60;99.90;;;;;;4986321;28;20065;-77
2023/06/25 02:51:39;;;;;;;0.80;0.45;;;17.60;99.90;;;;;;4986527;28;20050;-77
2023/06/25 02:54:06;;;;;;;0.77;0.60;;;17.70;99.90;;;;;;4986835;28;20053;-77
2023/06/25 02:56:33;;;;;;;0.80;0.50;;;17.70;99.90;;;;;;4985636;28;20073;-76
2023/06/25 02:59:00;;;;;;;0.60;0.50;;;17.70;99.90;;;;;;4970744;28;20050;-77
2023/06/25 03:01:26;;;;;;;0.35;0.35;;;17.70;99.90;;;;;;4986575;28;20523;-77
2023/06/25 03:03:53;;;;;;;0.65;0.55;;;17.70;99.90;;;;;;4969325;28;20137;-77
2023/06/25 03:06:20;;;;;;;0.70;0.50;;;17.70;99.90;;;;;;5003833;28;20111;-76
2023/06/25 03:08:47;;;;;;;0.65;0.50;;;17.70;99.90;;;;;;5003941;28;20058;-77
2023/06/25 03:11:14;;;;;;;0.50;0.50;;;17.70;99.90;;;;;;4954015;28;20453;-77
2023/06/25 03:13:41;;;;;;;1.02;0.57;;;17.80;99.90;;;;;;4985968;28;20053;-77
2023/06/25 03:16:08;;;;;;;0.68;0.50;;;17.80;99.90;;;;;;4986829;28;20046;-77
2023/06/25 03:18:34;;;;;;;0.80;0.60;;;17.80;99.90;;;;;;4954220;28;20046;-77
2023/06/25 03:21:01;;;;;;;0.68;0.60;;;17.80;99.90;;;;;;4970515;28;20054;-78
2023/06/25 03:23:28;;;;;;;0.50;0.50;;;17.80;99.90;;;;;;5003502;28;20057;-76
2023/06/25 03:25:55;;;;;;;0.30;0.30;;;17.80;99.90;;;;;;4985559;28;20056;-79
2023/06/25 03:28:21;;;;;;;0.50;0.50;;;17.80;99.90;;;;;;4954252;28;20053;-76
2023/06/25 03:30:48;;;;;;;0.50;0.40;;;17.90;99.90;;;;;;4986745;28;20054;-77
2023/06/25 03:33:15;;;;;;;0.60;0.47;;;17.80;99.90;;;;;;5002879;28;20450;-76
2023/06/25 03:35:42;;;;;;;0.65;0.50;;;17.80;99.90;;;;;;4970632;28;20064;-77
2023/06/25 03:38:10;;;;;;;0.47;0.43;;;17.80;99.90;;;;;;4970956;28;20077;-77
2023/06/25 03:40:38;;;;;;;0.50;0.40;;;17.90;99.90;;;;;;4970485;28;20085;-76
2023/06/25 03:43:05;;;;;;;1.05;0.55;;;17.80;99.90;;;;;;4987496;28;20052;-77
2023/06/25 03:45:32;;;;;;;0.80;0.68;;;17.80;99.90;;;;;;4973816;28;20119;-76
2023/06/25 03:47:59;;;;;;;0.50;0.40;;;17.80;99.90;;;;;;4989993;28;20373;-76
2023/06/25 03:50:26;;;;;;;0.50;0.50;;;17.90;99.90;;;;;;4957429;28;20049;-76
2023/06/25 03:52:53;;;;;;;0.47;0.47;;;17.90;99.90;;;;;;5007255;28;20057;-76
2023/06/25 03:55:19;;;;;;;0.95;0.70;;;17.90;99.90;;;;;;4989717;28;20127;-77
2023/06/25 03:57:46;;;;;;;0.73;0.43;;;18.00;99.90;;;;;;5006731;28;20042;-77
2023/06/25 04:00:13;;;;;;;0.95;0.73;;;18.00;99.90;;;;;;5008305;28;20065;-77
2023/06/25 04:02:40;;;;;;;0.60;0.60;;;18.00;99.90;;;;;;4988676;28;20081;-76
2023/06/25 04:05:07;;;;;;;1.10;0.73;;;18.00;99.90;;;;;;4988858;28;20088;-76
2023/06/25 04:07:34;;;;;;;0.73;0.70;;;18.10;99.90;;;;;;4973812;28;20046;-75
2023/06/25 04:10:01;;;;;;;1.00;0.88;;;18.10;99.90;;;;;;4989157;28;20050;-76
2023/06/25 04:12:27;;;;;;;1.00;0.90;;;18.20;99.90;;;;;;4973366;28;20607;-76
2023/06/25 04:14:54;;;;;;;1.35;0.98;;;18.20;99.90;;;;;;5007014;28;20081;-77
2023/06/25 04:17:22;;;;;;;1.38;1.00;;;18.30;99.90;;;;;;4989692;28;20049;-75
2023/06/25 04:19:51;;;;;;;1.13;0.80;;;18.30;99.90;;;;;;4958674;28;20350;-76
2023/06/25 04:22:18;;;;;;;1.27;0.98;;;18.30;99.90;;;;;;4973576;28;20120;-76
2023/06/25 04:24:44;;;;;;;1.23;0.80;;;18.40;99.90;;;;;;4987997;28;20049;-75
2023/06/25 04:27:11;;;;;;;0.93;0.80;;;18.40;99.90;;;;;;4989513;28;20053;-76
2023/06/25 04:29:38;;;;;;;1.05;0.90;;;18.50;99.90;;;;;;4989275;28;20077;-77
2023/06/25 04:32:05;;;;;;;1.25;0.90;;;18.50;99.90;;;;;;4989193;28;20054;-77
2023/06/25 04:34:32;;;;;;;1.20;1.00;;;18.50;99.90;;;;;;4972520;28;20086;-77
2023/06/25 04:36:59;;;;;;;1.40;1.05;;;18.60;99.90;;;;;;4973208;28;20116;-76
2023/06/25 04:39:26;;;;;;;1.13;0.85;;;18.70;99.90;;;;;;4973252;28;20081;-76
2023/06/25 04:41:52;;;;;;;1.65;1.25;;;18.60;99.90;;;;;;4988289;28;20169;-75
2023/06/25 04:44:19;;;;;;;1.38;1.05;;;18.70;99.90;;;;;;4988889;28;20112;-74
2023/06/25 04:46:46;;;;;;;1.27;1.05;;;18.80;99.90;;;;;;5006018;28;20890;-75
2023/06/25 04:49:13;;;;;;;1.10;1.00;;;18.80;99.90;;;;;;5005721;28;20042;-74
2023/06/25 04:51:40;;;;;;;1.83;1.17;;;18.90;99.90;;;;;;4988406;28;20130;-76
2023/06/25 04:54:06;;;;;;;0.77;0.77;;;18.90;99.90;;;;;;4987463;28;20091;-75
2023/06/25 04:56:34;;;;;;;1.05;0.90;;;18.90;99.90;;;;;;5004862;28;20608;-77
2023/06/25 04:59:00;;;;;;;1.00;0.82;;;19.00;99.90;;;;;;5006237;28;20065;-77
2023/06/25 05:01:28;;;;;;;1.02;0.90;;;19.00;99.90;;;;;;4972480;28;20049;-77
2023/06/25 05:03:54;;;;;;;1.38;0.90;;;19.10;99.90;;;;;;4995367;28;20509;-76
2023/06/25 05:06:21;;;;;;;1.42;1.10;;;19.20;99.90;;;;;;5002491;28;20103;-76
2023/06/25 05:08:48;;;;;;;1.52;1.00;;;19.20;99.90;;;;;;4952716;28;20057;-76
2023/06/25 05:11:15;;;;;;;1.52;1.20;;;19.20;99.90;;;;;;5001929;28;20277;-76
2023/06/25 05:13:42;;;;;;;1.50;1.23;;;19.30;99.90;;;;;;4983802;28;20053;-75
2023/06/25 05:16:09;;;;;;;1.42;1.13;;;19.40;99.90;;;;;;5002895;28;20060;-76
2023/06/25 05:18:37;;;;;;;1.13;1.02;;;19.40;99.90;;;;;;4968199;28;20056;-76
2023/06/25 05:21:04;;;;;;;1.38;1.08;;;19.50;99.90;;;;;;5002430;28;20053;-77
2023/06/25 05:23:42;;;;;;;1.40;1.20;;;19.60;99.90;;;;;;4984105;28;20050;-76
2023/06/25 05:26:08;;;;;;;1.30;1.15;;;19.60;99.90;;;;;;4952873;28;20193;-77
2023/06/25 05:28:35;;;;;;;1.38;1.20;;;19.70;99.90;;;;;;4968211;28;20085;-76
2023/06/25 05:31:02;;;;;;;1.73;1.10;;;19.80;99.90;;;;;;4984447;28;20049;-76
2023/06/25 05:33:29;;;;;;;1.38;1.20;;;19.90;99.90;;;;;;4983353;28;20413;-76
2023/06/25 05:35:56;;;;;;;1.60;1.40;;;20.00;99.90;;;;;;5001246;28;20060;-78
2023/06/25 05:38:23;;;;;;;1.73;1.40;;;20.10;99.90;;;;;;5001434;28;20081;-78
2023/06/25 05:40:49;;;;;;;1.42;1.13;;;20.10;99.90;;;;;;5001229;28;20081;-78
2023/06/25 05:43:16;;;;;;;1.85;1.40;;;20.20;99.90;;;;;;4984289;28;20603;-78
2023/06/25 05:45:43;;;;;;;1.85;1.52;;;20.30;99.90;;;;;;5001881;28;20489;-78
2023/06/25 05:48:10;;;;;;;1.70;1.45;;;20.40;99.90;;;;;;4984050;28;20422;-78
2023/06/25 05:50:36;;;;;;;1.77;1.00;;;20.40;99.90;;;;;;4984205;28;20149;-78
2023/06/25 05:53:03;;;;;;;1.45;1.13;;;20.50;99.90;;;;;;4982627;28;20092;-78
2023/06/25 05:55:30;;;;;;;1.73;1.13;;;20.50;99.90;;;;;;5015009;28;20088;-78
2023/06/25 05:57:57;;;;;;;1.38;1.27;;;20.50;99.90;;;;;;4981592;28;20096;-79
2023/06/25 06:00:24;;;;;;;2.15;1.75;;;20.60;99.90;;;;;;4967322;28;20155;-78
2023/06/25 06:02:50;;;;;;;2.58;1.95;;;20.70;99.90;;;;;;5000393;28;20128;-79
2023/06/25 06:05:17;;;;;;;2.03;1.80;;;20.80;99.90;;;;;;5000135;28;20528;-80
2023/06/25 06:07:44;;;;;;;2.40;1.80;;;20.90;99.90;;;;;;4983883;28;20153;-79
2023/06/25 06:10:13;;;;;;;1.67;1.48;;;20.90;99.90;;;;;;4967212;28;20145;-79
2023/06/25 06:12:40;;;;;;;2.08;1.70;;;20.90;99.90;;;;;;4967663;28;20186;-78
2023/06/25 06:15:07;;;;;;;1.95;1.45;;;21.00;99.90;;;;;;4966159;28;20111;-79
2023/06/25 06:17:34;;;;;;;1.77;1.60;;;21.10;99.90;;;;;;4977121;28;20049;-78
2023/06/25 06:20:03;;;;;;;1.50;1.10;;;21.20;99.90;;;;;;4981622;28;20445;-79
2023/06/25 06:22:30;;;;;;;1.35;1.25;;;21.20;99.90;;;;;;4983146;28;20057;-79
2023/06/25 06:24:56;;;;;;;1.50;1.30;;;21.30;99.90;;;;;;4979951;28;20489;-79
2023/06/25 06:27:23;;;;;;;2.20;1.23;;;21.40;99.90;;;;;;4981490;28;20084;-79
2023/06/25 06:29:50;;;;;;;1.95;1.40;;;21.50;99.90;;;;;;4979480;28;20042;-78
2023/06/25 06:32:17;;;;;;;2.83;1.35;;;21.60;99.90;;;;;;4997206;28;20300;-79
2023/06/25 06:34:43;;;;;;;1.73;1.35;;;21.60;99.90;;;;;;4964595;28;20129;-78
2023/06/25 06:37:11;;;;;;;3.30;1.45;;;21.70;99.90;;;;;;4998007;28;20137;-79
2023/06/25 06:39:38;;;;;;;1.95;1.25;;;21.80;99.90;;;;;;4995109;28;20052;-78
2023/06/25 06:42:05;;;;;;;1.40;1.00;;;21.90;99.90;;;;;;4965561;28;20365;-79
2023/06/25 06:44:32;;;;;;;1.65;1.33;;;22.00;99.90;;;;;;4999138;28;20058;-79
2023/06/25 06:46:59;;;;;;;1.80;1.25;;;22.00;99.90;;;;;;4995395;28;20334;-78
2023/06/25 06:49:25;;;;;;;1.77;1.33;;;22.10;99.90;;;;;;4978702;28;20571;-79
2023/06/25 06:51:52;;;;;;;1.55;1.30;;;22.20;99.90;;;;;;4975641;28;20065;-79
2023/06/25 06:54:19;;;;;;;1.15;1.05;;;22.30;99.90;;;;;;4977993;28;20049;-79
2023/06/25 06:56:46;;;;;;;1.65;1.35;;;22.40;99.90;;;;;;4973223;28;20115;-79
2023/06/25 06:59:12;;;;;;;2.03;1.83;;;22.40;99.90;;;;;;4966197;28;20054;-79
2023/06/25 07:01:39;;;;;;;1.63;1.38;;;22.50;99.90;;;;;;4960960;28;20050;-77
2023/06/25 07:04:06;;;;;;;2.38;1.60;;;22.50;99.90;;;;;;4964956;28;20064;-79
2023/06/25 07:06:33;;;;;;;1.77;1.40;;;22.60;99.90;;;;;;4959449;28;20082;-79
2023/06/25 07:09:00;;;;;;;1.92;1.58;;;22.70;99.90;;;;;;4972926;28;20125;-80
2023/06/25 07:11:27;;;;;;;2.67;1.90;;;22.70;99.90;;;;;;4959719;28;20046;-78
2023/06/25 07:13:54;;;;;;;2.28;1.88;;;22.80;99.90;;;;;;4958039;28;20112;-78
2023/06/25 07:16:21;;;;;;;2.00;1.60;;;22.90;99.90;;;;;;4960870;28;20519;-78
2023/06/25 07:18:47;;;;;;;2.13;1.77;;;22.90;99.90;;;;;;4948613;28;20585;-78
2023/06/25 07:21:14;;;;;;;2.35;1.73;;;23.00;99.90;;;;;;4982382;28;20532;-78
2023/06/25 07:23:41;;;;;;;2.05;1.70;;;23.10;99.90;;;;;;4949888;28;20481;-79
2023/06/25 07:26:08;;;;;;;1.90;1.70;;;23.10;99.90;;;;;;4939589;28;20076;-79
2023/06/25 07:28:35;;;;;;;1.70;1.33;;;23.20;99.90;;;;;;4956777;28;20417;-78
2023/06/25 07:31:01;;;;;;;2.50;1.98;;;23.20;99.90;;;;;;4980957;28;20112;-78
2023/06/25 07:33:28;;;;;;;2.22;1.83;;;23.20;99.90;;;;;;4966384;28;20077;-79
2023/06/25 07:35:55;;;;;;;2.00;1.40;;;23.20;99.90;;;;;;4983624;28;20082;-79
2023/06/25 07:38:22;;;;;;;2.00;1.75;;;23.30;99.90;;;;;;4963314;28;20050;-79
2023/06/25 07:40:49;;;;;;;2.92;2.08;;;23.30;99.90;;;;;;4980913;28;20089;-78
2023/06/25 07:43:15;;;;;;;2.97;2.42;;;23.40;99.90;;;;;;4943805;28;20090;-78
2023/06/25 07:45:42;;;;;;;2.72;2.17;;;23.40;99.90;;;;;;4940454;28;20513;-79
2023/06/25 07:48:09;;;;;;;2.67;2.17;;;23.40;99.90;;;;;;4957662;28;20042;-79
2023/06/25 07:50:36;;;;;;;2.30;1.70;;;23.50;99.90;;;;;;4950087;28;20082;-79
2023/06/25 07:53:03;;;;;;;2.00;1.50;;;23.60;99.90;;;;;;4939201;28;20050;-80
2023/06/25 07:55:29;;;;;;;1.65;1.35;;;23.60;99.90;;;;;;4978197;28;20054;-79
2023/06/25 07:57:56;;;;;;;1.75;1.42;;;23.60;99.90;;;;;;4965358;28;20120;-79
2023/06/25 08:00:23;;;;;;;2.47;1.73;;;23.70;99.90;;;;;;4948556;28;20140;-80
2023/06/25 08:02:50;;;;;;;1.60;1.50;;;23.70;99.90;;;;;;4964463;28;20043;-79
2023/06/25 08:05:17;;;;;;;1.92;1.42;;;23.80;99.90;;;;;;4961755;28;20172;-79
2023/06/25 08:07:44;;;;;;;1.55;1.35;;;23.90;99.90;;;;;;4964039;28;20053;-79
2023/06/25 08:10:11;;;;;;;1.83;1.33;;;23.90;99.90;;;;;;4971219;28;20564;-80
2023/06/25 08:12:37;;;;;;;2.10;1.60;;;24.00;99.90;;;;;;4966883;28;20049;-79
2023/06/25 08:15:05;;;;;;;1.83;1.50;;;24.00;99.90;;;;;;4968345;28;20050;-79
2023/06/25 08:17:31;;;;;;;2.33;1.48;;;24.10;99.90;;;;;;4968563;28;20050;-79
2023/06/25 08:19:58;;;;;;;1.35;1.23;;;24.20;99.90;;;;;;4982653;28;20050;-79
2023/06/25 08:22:25;;;;;;;1.65;1.45;;;24.20;99.90;;;;;;4965778;28;20046;-79
2023/06/25 08:24:53;;;;;;;1.90;1.63;;;24.40;99.90;;;;;;4967309;28;20110;-79
2023/06/25 08:27:20;;;;;;;3.15;1.80;;;24.40;99.90;;;;;;4999636;28;20061;-79
2023/06/25 08:29:47;;;;;;;2.85;1.58;;;24.40;99.90;;;;;;4964452;28;20450;-80
2023/06/25 08:32:14;;;;;;;2.40;2.08;;;24.50;99.90;;;;;;4967273;28;20081;-79
2023/06/25 08:34:40;;;;;;;1.60;1.42;;;24.60;99.60;;;;;;4963481;28;20120;-79
2023/06/25 08:37:07;;;;;;;2.17;1.70;;;24.60;99.90;;;;;;4981070;28;20061;-79
2023/06/25 08:39:34;;;;;;;1.50;1.40;;;24.60;99.90;;;;;;4977126;28;20065;-79
2023/06/25 08:42:01;;;;;;;1.65;1.55;;;24.70;99.90;;;;;;4995788;28;20057;-79
2023/06/25 08:44:29;;;;;;;2.53;2.00;;;24.80;99.60;;;;;;4962987;28;20050;-79
2023/06/25 08:46:55;;;;;;;1.80;1.52;;;24.90;99.50;;;;;;4985094;28;20145;-80
2023/06/25 08:49:23;;;;;;;1.77;1.45;;;24.90;99.80;;;;;;4970037;28;20056;-80
2023/06/25 08:51:55;;;;;;;1.80;1.38;;;25.00;99.90;;;;;;4980256;28;20054;-79
2023/06/25 08:54:22;;;;;;;2.58;1.20;;;25.10;99.40;;;;;;4949790;28;20074;-80
2023/06/25 08:56:48;;;;;;;3.75;1.70;;;25.10;99.50;;;;;;4985874;28;20232;-80
2023/06/25 08:59:15;;;;;;;1.52;1.27;;;25.20;99.20;;;;;;4980859;28;20053;-79
2023/06/25 09:01:42;;;;;;;1.70;1.60;;;25.20;99.40;;;;;;4984001;28;20108;-80
2023/06/25 09:04:10;;;;;;;1.77;1.52;;;25.30;99.20;;;;;;5000281;28;20609;-79
2023/06/25 09:06:40;;;;;;;1.67;1.42;;;25.20;99.40;;;;;;4986442;28;20038;-78
2023/06/25 09:09:26;;;;;;;1.92;1.40;;;25.30;99.50;;;;;;4967808;28;20054;-78
2023/06/25 09:11:53;;;;;;;2.20;1.60;;;25.50;99.20;;;;;;4974515;28;20054;-79
2023/06/25 09:14:20;;;;;;;2.20;1.60;;;25.50;98.90;;;;;;4998396;28;20049;-79
2023/06/25 09:16:48;;;;;;;2.20;1.90;;;25.60;98.30;;;;;;4959406;28;20061;-80
2023/06/25 09:19:18;;;;;;;1.63;1.38;;;25.80;98.50;;;;;;4959913;28;20569;-81
2023/06/25 09:21:46;;;;;;;2.15;1.73;;;25.90;98.10;;;;;;4979892;28;20046;-79
2023/06/25 09:24:17;;;;;;;1.65;1.52;;;26.00;98.20;;;;;;4975327;28;20432;-78
2023/06/25 09:26:48;;;;;;;2.72;1.90;;;26.10;98.20;;;;;;4975674;28;20045;-79
2023/06/25 09:29:15;;;;;;;2.17;1.85;;;26.10;97.40;;;;;;4954570;28;20081;-73
2023/06/25 09:31:45;;;;;;;1.80;1.40;;;26.10;97.40;;;;;;5003109;28;20440;-73
2023/06/25 09:34:14;;;;;;;1.75;1.63;;;26.20;97.10;;;;;;4968481;28;20084;-72
2023/06/25 09:36:41;;;;;;;2.15;1.80;;;26.20;97.80;;;;;;4979586;28;20053;-73
2023/06/25 09:39:09;;;;;;;2.00;1.60;;;26.30;97.30;;;;;;4970375;28;20041;-74
2023/06/25 09:41:37;;;;;;;2.35;1.98;;;26.40;96.70;;;;;;4982759;28;20468;-74
2023/06/25 09:44:05;;;;;;;1.88;1.55;;;26.50;97.10;;;;;;4969470;28;20623;-74
2023/06/25 09:46:39;;;;;;;1.52;1.35;;;26.60;97.10;;;;;;4984093;28;20046;-73
2023/06/25 09:49:07;;;;;;;2.08;1.58;;;26.70;96.60;;;;;;5018837;28;20646;-73
2023/06/25 09:51:42;;;;;;;1.85;1.65;;;26.70;96.20;;;;;;4983344;28;20164;-73
2023/06/25 09:54:10;;;;;;;1.60;1.40;;;26.80;96.80;;;;;;4972806;28;20049;-73
2023/06/25 09:56:38;;;;;;;2.13;1.20;;;27.00;96.60;;;;;;4960654;28;20046;-75
2023/06/25 09:59:05;;;;;;;1.75;1.40;;;27.10;96.00;;;;;;4995602;28;20042;-75
2023/06/25 10:01:31;;;;;;;1.98;1.60;;;27.10;96.10;;;;;;4992072;28;20089;-73
2023/06/25 10:03:59;;;;;;;1.85;1.50;;;27.30;96.00;;;;;;4992601;28;20068;-74
2023/06/25 10:06:26;;;;;;;1.80;1.60;;;27.30;95.90;;;;;;4991551;28;20509;-74
2023/06/25 10:08:54;;;;;;;2.05;1.85;;;27.40;95.60;;;;;;4973176;28;20113;-74
2023/06/25 10:11:21;;;;;;;1.98;1.77;;;27.60;95.90;;;;;;4977045;28;20111;-73
2023/06/25 10:13:51;;;;;;;1.60;1.30;;;27.70;95.00;;;;;;4996723;28;20053;-75
2023/06/25 10:16:19;;;;;;;2.38;1.67;;;27.70;94.90;;;;;;4996274;28;20088;-73
2023/06/25 10:19:00;;;;;;;1.45;1.27;;;27.80;94.80;;;;;;4982745;28;20338;-78
2023/06/25 10:21:27;;;;;;;1.90;1.70;;;27.90;95.10;;;;;;4951842;28;20145;-80
2023/06/25 10:23:58;;;;;;;1.88;1.50;;;28.00;94.90;;;;;;4970512;28;20050;-79
2023/06/25 10:26:29;;;;;;;1.73;1.50;;;28.20;94.70;;;;;;4967040;28;20100;-79
2023/06/25 10:28:59;;;;;;;1.80;1.60;;;28.30;94.50;;;;;;4972612;28;20053;-80
2023/06/25 10:31:27;;;;;;;2.30;1.88;;;28.30;94.10;;;;;;4960573;28;20093;-79
2023/06/25 10:34:04;;;;;;;2.40;1.80;;;28.30;94.20;;;;;;4995202;28;20056;-82
2023/06/25 10:36:31;;;;;;;2.00;1.80;;;28.40;93.70;;;;;;4966130;28;20138;-82
2023/06/25 10:38:58;;;;;;;2.00;1.60;;;28.40;93.90;;;;;;4965657;28;20741;-80
2023/06/25 10:41:27;;;;;;;1.75;1.50;;;28.60;94.40;;;;;;4958525;28;20050;-79
2023/06/25 10:43:53;;;;;;;1.77;1.58;;;28.80;94.00;;;;;;4980575;28;20441;-78
2023/06/25 10:46:28;;;;;;;1.58;1.45;;;29.00;93.80;;;;;;4999481;28;20611;-78
2023/06/25 10:49:01;;;;;;;1.77;1.30;;;29.00;93.80;;;;;;4965814;28;20053;-78
2023/06/25 10:51:28;;;;;;;1.50;1.40;;;29.20;93.30;;;;;;4949804;28;20111;-80
2023/06/25 10:53:56;;;;;;;2.13;1.75;;;29.20;93.10;;;;;;4970092;28;20054;-80
2023/06/25 10:56:23;;;;;;;1.50;1.13;;;29.40;92.70;;;;;;4986460;28;20082;-79
2023/06/25 10:58:56;;;;;;;1.35;1.23;;;29.60;92.90;;;;;;4986854;28;20054;-80
2023/06/25 11:01:23;;;;;;;1.60;1.40;;;29.70;92.80;;;;;;4987550;28;20050;-80
2023/06/25 11:03:50;;;;;;;2.10;1.50;;;29.90;92.70;;;;;;5003753;28;20062;-80
2023/06/25 11:06:18;;;;;;;1.92;1.73;;;30.00;92.60;;;;;;4959042;28;20050;-80
2023/06/25 11:08:47;;;;;;;1.70;1.48;;;30.20;91.90;;;;;;4985062;28;20057;-80
2023/06/25 11:11:14;;;;;;;1.70;1.60;;;30.30;91.50;;;;;;4951952;28;20508;-80
2023/06/25 11:13:42;;;;;;;1.90;1.70;;;30.40;91.10;;;;;;4970281;28;20054;-78
2023/06/25 11:16:08;;;;;;;1.90;1.67;;;30.60;91.90;;;;;;4971692;28;20046;-79
2023/06/25 11:18:36;;;;;;;1.60;1.40;;;30.70;90.90;;;;;;4991402;28;20042;-80
2023/06/25 11:21:04;;;;;;;2.97;1.45;;;30.70;90.10;;;;;;4976094;28;20136;-79
2023/06/25 11:23:31;;;;;;;1.50;1.30;;;31.00;90.30;;;;;;4963899;28;20205;-79
2023/06/25 11:26:02;;;;;;;2.00;1.45;;;31.10;89.80;;;;;;4980076;28;20564;-79
2023/06/25 11:28:30;;;;;;;1.70;1.30;;;31.30;89.40;;;;;;4974053;28;20053;-79
2023/06/25 11:30:57;;;;;;;1.42;1.10;;;31.60;89.50;;;;;;4995959;28;20515;-80
2023/06/25 11:33:24;;;;;;;1.85;1.58;;;31.90;90.30;;;;;;4977087;28;20060;-81
2023/06/25 11:35:51;;;;;;;2.17;1.70;;;31.90;88.90;;;;;;4971315;28;20046;-78
2023/06/25 11:38:25;;;;;;;2.38;1.85;;;32.00;89.20;;;;;;4990742;28;20042;-78
2023/06/25 11:40:55;;;;;;;1.65;1.50;;;32.20;88.90;;;;;;4980057;28;20076;-78
2023/06/25 11:43:22;;;;;;;1.85;1.52;;;32.40;88.30;;;;;;4953811;28;20054;-78
2023/06/25 11:45:49;;;;;;;1.60;1.50;;;32.40;86.80;;;;;;4985928;28;20058;-78
2023/06/25 11:48:17;;;;;;;1.65;1.33;;;32.60;86.50;;;;;;4985119;28;20062;-79
2023/06/25 11:50:44;;;;;;;2.67;1.85;;;32.60;87.40;;;;;;4982819;28;20136;-79
2023/06/25 11:53:11;;;;;;;1.88;1.50;;;32.60;87.00;;;;;;4988402;28;20141;-78
2023/06/25 11:55:38;;;;;;;1.67;1.38;;;32.60;85.90;;;;;;4981711;28;20050;-78
2023/06/25 11:58:07;;;;;;;1.58;1.40;;;32.60;86.30;;;;;;4967717;28;20061;-79
2023/06/25 12:00:34;;;;;;;1.60;1.50;;;32.70;84.40;;;;;;4968271;28;20477;-78
2023/06/25 12:03:01;;;;;;;2.13;1.70;;;32.60;84.00;;;;;;4999668;28;20187;-79
2023/06/25 12:05:28;;;;;;;1.70;1.60;;;32.70;83.40;;;;;;4999704;28;20566;-78
2023/06/25 12:07:54;;;;;;;2.08;1.88;;;32.60;83.50;;;;;;4987364;28;20104;-78
2023/06/25 12:10:21;;;;;;;1.50;1.40;;;33.00;83.50;;;;;;5010924;28;20559;-79
2023/06/25 12:12:48;;;;;;;2.20;1.75;;;33.10;82.30;;;;;;4980604;28;20282;-81
2023/06/25 12:15:15;;;;;;;2.95;1.70;;;33.40;82.90;;;;;;4971097;28;20421;-79
2023/06/25 12:17:42;;;;;;;1.50;1.40;;;33.60;81.20;;;;;;4986602;28;20050;-79
2023/06/25 12:20:09;;;;;;;1.70;1.50;;;33.80;81.80;;;;;;4952939;28;20133;-79
2023/06/25 12:22:36;;;;;;;1.48;1.33;;;34.10;81.20;;;;;;4941311;28;20130;-79
2023/06/25 12:25:04;;;;;;;1.52;1.42;;;34.40;80.60;;;;;;5000307;28;20061;-79
2023/06/25 12:27:31;;;;;;;1.33;1.23;;;34.60;79.70;;;;;;4969540;28;20065;-79
2023/06/25 12:29:57;;;;;;;2.00;1.80;;;34.80;79.60;;;;;;5003016;28;20115;-80
2023/06/25 12:32:24;;;;;;;1.70;1.50;;;35.00;79.60;;;;;;5000421;28;20143;-78
2023/06/25 12:34:52;;;;;;;2.05;1.77;;;35.10;78.80;;;;;;4991242;28;20480;-79
2023/06/25 12:37:18;;;;;;;1.55;1.45;;;35.20;78.40;;;;;;5002546;28;20563;-79
2023/06/25 12:39:45;;;;;;;1.42;1.33;;;35.50;79.00;;;;;;4968349;28;20054;-79
2023/06/25 12:42:12;;;;;;;1.65;1.55;;;35.40;77.00;;;;;;4971402;28;20117;-79
2023/06/25 12:44:39;;;;;;;1.92;1.70;;;35.50;77.10;;;;;;4986230;28;20151;-78
2023/06/25 12:47:05;;;;;;;1.65;1.55;;;35.50;76.50;;;;;;4985242;28;20152;-79
2023/06/25 12:49:32;;;;;;;1.60;1.42;;;35.30;76.60;;;;;;4969102;28;20100;-78